createdAt,value
2022-09-12T00:02:02.828Z,55.70
2022-09-12T00:04:29.367Z,55.70
2022-09-12T00:06:55.852Z,55.70
2022-09-12T00:09:22.326Z,55.50
2022-09-12T00:11:48.800Z,55.60
2022-09-12T00:14:15.290Z,55.50
2022-09-12T00:16:41.825Z,55.50
2022-09-12T00:19:08.335Z,55.50
2022-09-12T00:21:34.796Z,55.60
2022-09-12T00:24:01.284Z,55.60
2022-09-12T00:26:27.748Z,55.50
2022-09-12T00:28:54.214Z,55.50
2022-09-12T00:31:20.731Z,55.50
2022-09-12T00:33:47.236Z,55.40
2022-09-12T00:36:13.718Z,55.40
2022-09-12T00:38:40.204Z,55.30
2022-09-12T00:41:06.681Z,55.30
2022-09-12T00:43:33.162Z,55.40
2022-09-12T00:45:59.655Z,55.30
2022-09-12T00:48:26.146Z,55.20
2022-09-12T00:50:52.627Z,55.30
2022-09-12T00:53:19.101Z,55.10
2022-09-12T00:55:45.564Z,55.20
2022-09-12T00:58:12.061Z,55.20
2022-09-12T01:00:38.528Z,55.20
2022-09-12T01:03:05.040Z,55.20
2022-09-12T01:05:31.523Z,55.20
2022-09-12T01:07:58.012Z,55.20
2022-09-12T01:10:24.487Z,55.20
2022-09-12T01:12:50.979Z,55.20
2022-09-12T01:15:17.487Z,55.20
2022-09-12T01:17:43.995Z,55.20
2022-09-12T01:20:10.463Z,55.20
2022-09-12T01:22:36.931Z,55.10
2022-09-12T01:25:03.405Z,55.20
2022-09-12T01:27:29.888Z,55.10
2022-09-12T01:29:56.363Z,55.00
2022-09-12T01:32:22.899Z,54.90
2022-09-12T01:34:49.414Z,54.80
2022-09-12T01:37:15.880Z,55.00
2022-09-12T01:39:42.392Z,55.00
2022-09-12T01:42:08.884Z,54.90
2022-09-12T01:44:35.351Z,54.80
2022-09-12T01:47:01.831Z,54.80
2022-09-12T01:49:28.299Z,54.90
2022-09-12T01:51:54.773Z,54.80
2022-09-12T01:54:21.249Z,54.70
2022-09-12T01:56:47.718Z,54.80
2022-09-12T01:59:14.193Z,54.80
2022-09-12T02:01:40.672Z,54.80
2022-09-12T02:04:07.138Z,54.80
2022-09-12T02:06:33.598Z,54.90
2022-09-12T02:11:50.754Z,54.80
2022-09-12T02:14:17.228Z,54.70
2022-09-12T02:16:43.716Z,54.60
2022-09-12T02:19:10.227Z,54.70
2022-09-12T02:21:36.692Z,54.80
2022-09-12T02:24:03.179Z,54.70
2022-09-12T02:26:29.642Z,54.70
2022-09-12T02:28:56.128Z,54.70
2022-09-12T02:31:22.587Z,54.60
2022-09-12T02:33:49.060Z,54.60
2022-09-12T02:36:15.552Z,54.50
2022-09-12T02:38:42.049Z,54.50
2022-09-12T02:41:08.517Z,54.50
2022-09-12T02:43:34.983Z,54.60
2022-09-12T02:46:01.544Z,54.60
2022-09-12T02:48:28.064Z,54.50
2022-09-12T02:50:54.553Z,54.50
2022-09-12T02:53:21.039Z,54.40
2022-09-12T02:55:47.518Z,54.30
2022-09-12T02:58:13.983Z,54.40
2022-09-12T03:00:40.455Z,54.30
2022-09-12T03:03:06.934Z,54.30
2022-09-12T03:05:33.419Z,54.40
2022-09-12T03:07:59.912Z,54.30
2022-09-12T03:10:26.387Z,54.30
2022-09-12T03:12:52.861Z,54.30
2022-09-12T03:15:19.331Z,54.20
2022-09-12T03:17:45.782Z,54.20
2022-09-12T03:20:12.248Z,54.30
2022-09-12T03:22:38.730Z,54.20
2022-09-12T03:25:05.206Z,54.20
2022-09-12T03:27:31.696Z,54.20
2022-09-12T03:29:58.148Z,54.20
2022-09-12T03:32:24.631Z,54.10
2022-09-12T03:34:51.113Z,54.10
2022-09-12T03:37:17.580Z,54.20
2022-09-12T03:39:44.082Z,54.10
2022-09-12T03:42:10.559Z,54.10
2022-09-12T03:44:37.029Z,54.00
2022-09-12T03:47:04.611Z,54.10
2022-09-12T03:49:33.416Z,54.00
2022-09-12T03:51:59.899Z,54.00
2022-09-12T03:54:26.378Z,53.90
2022-09-12T03:56:52.866Z,54.00
2022-09-12T03:59:19.324Z,53.90
2022-09-12T04:01:45.805Z,53.90
2022-09-12T04:04:12.272Z,53.90
2022-09-12T04:06:38.755Z,53.90
2022-09-12T04:09:05.224Z,53.90
2022-09-12T04:11:31.703Z,53.70
2022-09-12T04:13:58.165Z,53.90
2022-09-12T04:16:24.666Z,53.70
2022-09-12T04:18:51.164Z,53.70
2022-09-12T04:21:17.659Z,53.70
2022-09-12T04:23:44.136Z,53.70
2022-09-12T04:26:10.626Z,53.70
2022-09-12T04:28:37.091Z,53.70
2022-09-12T04:31:03.623Z,54.30
2022-09-12T04:33:30.119Z,53.70
2022-09-12T04:35:56.594Z,53.40
2022-09-12T04:38:23.053Z,53.50
2022-09-12T04:40:49.515Z,53.50
2022-09-12T04:43:15.998Z,53.50
2022-09-12T04:45:42.520Z,53.50
2022-09-12T04:48:09.027Z,53.50
2022-09-12T04:50:35.511Z,53.60
2022-09-12T04:53:01.975Z,53.70
2022-09-12T04:55:28.453Z,53.60
2022-09-12T04:57:54.918Z,53.60
2022-09-12T05:00:21.392Z,53.60
2022-09-12T05:02:47.865Z,53.50
2022-09-12T05:05:14.341Z,53.40
2022-09-12T05:07:40.845Z,53.40
2022-09-12T05:10:07.310Z,53.50
2022-09-12T05:12:33.778Z,53.40
2022-09-12T05:15:00.256Z,53.40
2022-09-12T05:17:26.734Z,53.40
2022-09-12T05:19:53.215Z,53.30
2022-09-12T05:22:19.680Z,53.30
2022-09-12T05:24:50.310Z,53.30
2022-09-12T05:27:17.114Z,53.20
2022-09-12T05:29:43.589Z,53.30
2022-09-12T05:32:10.089Z,53.30
2022-09-12T05:34:36.551Z,53.30
2022-09-12T05:37:03.047Z,53.20
2022-09-12T05:39:29.511Z,53.10
2022-09-12T05:41:56.008Z,53.30
2022-09-12T05:44:22.491Z,53.30
2022-09-12T05:46:49.000Z,53.20
2022-09-12T05:49:15.481Z,53.20
2022-09-12T05:51:41.951Z,53.30
2022-09-12T05:54:08.437Z,53.20
2022-09-12T05:56:34.908Z,53.20
2022-09-12T05:59:01.366Z,53.10
2022-09-12T06:01:27.944Z,53.10
2022-09-12T06:03:54.480Z,53.10
2022-09-12T06:06:20.963Z,53.10
2022-09-12T06:08:47.568Z,53.20
2022-09-12T06:11:14.123Z,53.10
2022-09-12T06:13:40.651Z,53.20
2022-09-12T06:16:07.159Z,53.10
2022-09-12T06:18:33.731Z,53.30
2022-09-12T06:21:00.214Z,53.20
2022-09-12T06:23:26.702Z,53.30
2022-09-12T06:25:53.189Z,53.20
2022-09-12T06:28:19.665Z,53.30
2022-09-12T06:30:46.136Z,53.40
2022-09-12T06:33:12.645Z,53.40
2022-09-12T06:35:39.099Z,53.40
2022-09-12T06:38:05.569Z,53.30
2022-09-12T06:40:32.029Z,53.40
2022-09-12T06:42:58.494Z,53.30
2022-09-12T06:45:24.960Z,53.30
2022-09-12T06:47:51.437Z,53.30
2022-09-12T06:50:17.901Z,53.30
2022-09-12T06:52:44.418Z,53.40
2022-09-12T06:55:10.896Z,53.40
2022-09-12T06:57:37.359Z,53.30
2022-09-12T07:00:03.828Z,53.50
2022-09-12T07:02:30.364Z,53.50
2022-09-12T07:04:56.854Z,53.40
2022-09-12T07:07:23.346Z,53.30
2022-09-12T07:09:49.828Z,53.40
2022-09-12T07:12:16.316Z,53.40
2022-09-12T07:14:42.805Z,53.50
2022-09-12T07:17:09.309Z,53.40
2022-09-12T07:19:35.826Z,53.50
2022-09-12T07:22:02.314Z,53.40
2022-09-12T07:24:28.785Z,53.40
2022-09-12T07:26:55.285Z,53.40
2022-09-12T07:29:38.015Z,53.40
2022-09-12T07:32:04.658Z,53.30
2022-09-12T07:34:31.162Z,53.30
2022-09-12T07:36:57.634Z,53.50
2022-09-12T07:39:24.127Z,53.50
2022-09-12T07:41:50.605Z,53.50
2022-09-12T07:44:17.102Z,53.50
2022-09-12T07:46:43.579Z,53.30
2022-09-12T07:49:10.078Z,53.30
2022-09-12T07:51:36.558Z,53.40
2022-09-12T07:54:03.063Z,53.40
2022-09-12T07:56:31.943Z,53.50
2022-09-12T07:59:00.188Z,53.40
2022-09-12T08:01:26.727Z,53.30
2022-09-12T08:03:53.271Z,53.40
2022-09-12T08:06:19.898Z,53.30
2022-09-12T08:08:46.395Z,53.40
2022-09-12T08:11:12.895Z,53.40
2022-09-12T08:13:39.365Z,53.50
2022-09-12T08:16:05.881Z,53.60
2022-09-12T08:18:32.400Z,53.50
2022-09-12T08:20:58.869Z,53.50
2022-09-12T08:23:25.351Z,53.40
2022-09-12T08:25:51.814Z,53.40
2022-09-12T08:28:18.286Z,53.50
2022-09-12T08:30:44.774Z,53.50
2022-09-12T08:33:11.253Z,53.60
2022-09-12T08:35:37.740Z,53.50
2022-09-12T08:38:04.203Z,53.70
2022-09-12T08:40:30.662Z,53.60
2022-09-12T08:42:57.142Z,53.50
2022-09-12T08:45:23.618Z,53.70
2022-09-12T08:47:50.093Z,53.70
2022-09-12T08:50:16.559Z,53.60
2022-09-12T08:52:43.036Z,53.70
2022-09-12T08:55:09.523Z,53.60
2022-09-12T08:57:35.993Z,53.70
2022-09-12T09:00:02.505Z,53.70
2022-09-12T09:02:29.050Z,53.70
2022-09-12T09:04:55.579Z,53.60
2022-09-12T09:07:22.035Z,53.70
2022-09-12T09:09:48.529Z,53.60
2022-09-12T09:12:15.011Z,53.60
2022-09-12T09:14:41.487Z,53.60
2022-09-12T09:17:07.972Z,53.40
2022-09-12T09:19:34.452Z,53.10
2022-09-12T09:22:00.931Z,53.30
2022-09-12T09:24:27.411Z,53.20
2022-09-12T09:26:53.864Z,53.40
2022-09-12T09:29:20.337Z,53.50
2022-09-12T09:31:46.814Z,53.40
2022-09-12T09:34:13.294Z,53.40
2022-09-12T09:36:39.770Z,53.40
2022-09-12T09:39:06.263Z,53.40
2022-09-12T09:41:32.728Z,53.40
2022-09-12T09:43:59.282Z,53.40
2022-09-12T09:46:25.830Z,53.40
2022-09-12T09:48:52.361Z,53.40
2022-09-12T09:51:18.847Z,53.60
2022-09-12T09:53:45.316Z,53.60
2022-09-12T09:56:11.796Z,53.70
2022-09-12T09:58:38.280Z,53.60
2022-09-12T10:01:04.819Z,53.60
2022-09-12T10:03:31.309Z,53.60
2022-09-12T10:05:57.789Z,53.40
2022-09-12T10:08:24.275Z,53.60
2022-09-12T10:10:50.771Z,53.50
2022-09-12T10:13:17.245Z,53.50
2022-09-12T10:15:43.771Z,53.40
2022-09-12T10:18:10.263Z,53.40
2022-09-12T10:20:36.758Z,53.40
2022-09-12T10:23:03.230Z,53.40
2022-09-12T10:25:29.723Z,53.50
2022-09-12T10:27:56.201Z,53.40
2022-09-12T10:30:22.685Z,53.40
2022-09-12T10:32:49.162Z,53.40
2022-09-12T10:35:15.679Z,53.30
2022-09-12T10:37:42.149Z,53.20
2022-09-12T10:40:09.836Z,53.40
2022-09-12T10:42:36.463Z,53.30
2022-09-12T10:45:02.935Z,53.30
2022-09-12T10:47:29.410Z,53.30
2022-09-12T10:49:55.871Z,53.20
2022-09-12T10:52:22.340Z,53.20
2022-09-12T10:54:48.818Z,53.30
2022-09-12T10:57:15.286Z,53.20
2022-09-12T10:59:41.753Z,53.00
2022-09-12T11:02:08.250Z,53.00
2022-09-12T11:04:34.742Z,52.90
2022-09-12T11:07:01.225Z,52.90
2022-09-12T11:09:27.682Z,53.00
2022-09-12T11:11:54.196Z,53.00
2022-09-12T11:14:20.685Z,53.10
2022-09-12T11:16:47.155Z,53.20
2022-09-12T11:19:13.632Z,53.30
2022-09-12T11:21:40.109Z,53.40
2022-09-12T11:24:06.574Z,53.40
2022-09-12T11:26:33.085Z,53.40
2022-09-12T11:28:59.542Z,53.40
2022-09-12T11:31:26.018Z,53.60
2022-09-12T11:33:56.328Z,53.50
2022-09-12T11:36:23.202Z,54.30
2022-09-12T11:38:49.686Z,53.70
2022-09-12T11:41:16.180Z,53.80
2022-09-12T11:43:42.704Z,53.80
2022-09-12T11:46:09.217Z,53.90
2022-09-12T11:48:35.769Z,54.00
2022-09-12T11:51:02.267Z,53.80
2022-09-12T11:53:28.728Z,53.90
2022-09-12T11:55:55.194Z,53.80
2022-09-12T11:58:21.682Z,54.00
2022-09-12T12:00:48.163Z,53.90
2022-09-12T12:03:14.701Z,53.90
2022-09-12T12:05:41.248Z,53.90
2022-09-12T12:08:07.718Z,53.90
2022-09-12T12:10:34.205Z,53.90
2022-09-12T12:13:00.693Z,53.90
2022-09-12T12:15:27.187Z,53.90
2022-09-12T12:17:53.673Z,53.90
2022-09-12T12:20:20.159Z,54.10
2022-09-12T12:22:46.640Z,54.00
2022-09-12T12:25:13.146Z,54.00
2022-09-12T12:27:39.641Z,54.00
2022-09-12T12:30:06.144Z,54.00
2022-09-12T12:32:32.617Z,54.10
2022-09-12T12:34:59.097Z,54.00
2022-09-12T12:37:25.550Z,54.00
2022-09-12T12:39:52.070Z,54.10
2022-09-12T12:42:20.714Z,54.10
2022-09-12T12:44:48.755Z,54.00
2022-09-12T12:47:15.222Z,54.10
2022-09-12T12:49:41.727Z,54.10
2022-09-12T12:52:08.229Z,54.10
2022-09-12T12:54:34.711Z,54.10
2022-09-12T12:57:01.201Z,54.00
2022-09-12T12:59:27.660Z,54.00
2022-09-12T13:01:55.358Z,54.00
2022-09-12T13:04:22.077Z,54.00
2022-09-12T13:06:48.566Z,53.90
2022-09-12T13:09:15.023Z,54.00
2022-09-12T13:11:41.491Z,54.00
2022-09-12T13:14:07.968Z,53.90
2022-09-12T13:16:34.427Z,53.90
2022-09-12T13:19:00.918Z,53.90
2022-09-12T13:21:27.410Z,53.90
2022-09-12T13:23:53.883Z,54.00
2022-09-12T13:26:20.368Z,54.00
2022-09-12T13:28:46.906Z,54.00
2022-09-12T13:31:13.480Z,54.00
2022-09-12T13:33:40.015Z,54.00
2022-09-12T13:36:06.491Z,54.00
2022-09-12T13:38:32.959Z,53.90
2022-09-12T13:40:59.460Z,53.90
2022-09-12T13:43:25.928Z,53.80
2022-09-12T13:45:52.462Z,53.80
2022-09-12T13:48:18.998Z,53.70
2022-09-12T13:50:45.522Z,53.70
2022-09-12T13:53:11.997Z,53.80
2022-09-12T13:55:38.497Z,53.80
2022-09-12T13:58:04.969Z,53.70
2022-09-12T14:00:31.469Z,53.80
2022-09-12T14:02:57.991Z,53.80
2022-09-12T14:05:24.477Z,53.70
2022-09-12T14:07:50.954Z,54.30
2022-09-12T14:10:17.430Z,53.60
2022-09-12T14:12:43.934Z,53.60
2022-09-12T14:15:10.409Z,53.50
2022-09-12T14:17:36.877Z,53.40
2022-09-12T14:20:03.445Z,53.60
2022-09-12T14:22:29.965Z,53.60
2022-09-12T14:24:56.426Z,53.60
2022-09-12T14:27:22.915Z,53.40
2022-09-12T14:29:49.398Z,53.50
2022-09-12T14:32:15.887Z,53.60
2022-09-12T14:34:42.343Z,53.60
2022-09-12T14:37:08.808Z,53.40
2022-09-12T14:39:35.281Z,53.50
2022-09-12T14:42:01.746Z,53.50
2022-09-12T14:44:28.220Z,53.40
2022-09-12T14:46:54.706Z,53.40
2022-09-12T14:49:21.195Z,53.40
2022-09-12T14:51:51.224Z,53.30
2022-09-12T14:54:17.996Z,53.20
2022-09-12T14:56:44.499Z,53.30
2022-09-12T14:59:10.965Z,53.80
2022-09-12T15:01:37.470Z,53.30
2022-09-12T15:04:04.073Z,53.30
2022-09-12T15:06:30.652Z,53.30
2022-09-12T15:08:57.116Z,53.30
2022-09-12T15:11:23.588Z,53.30
2022-09-12T15:13:50.160Z,53.20
2022-09-12T15:16:16.684Z,53.10
2022-09-12T15:18:43.188Z,53.20
2022-09-12T15:21:09.663Z,53.10
2022-09-12T15:23:36.210Z,53.10
2022-09-12T15:26:02.784Z,53.10
2022-09-12T15:28:29.267Z,53.10
2022-09-12T15:30:55.793Z,53.00
2022-09-12T15:33:22.312Z,53.10
2022-09-12T15:35:48.823Z,52.90
2022-09-12T15:38:15.279Z,52.90
2022-09-12T15:40:41.766Z,52.90
2022-09-12T15:43:08.231Z,52.80
2022-09-12T15:45:34.742Z,52.80
2022-09-12T15:48:01.221Z,52.80
2022-09-12T15:50:27.723Z,52.80
2022-09-12T15:52:54.185Z,52.80
2022-09-12T15:55:20.703Z,52.60
2022-09-12T15:57:47.165Z,52.70
2022-09-12T16:00:13.657Z,52.60
2022-09-12T16:02:40.172Z,52.60
2022-09-12T16:05:06.703Z,52.60
2022-09-12T16:07:33.193Z,52.60
2022-09-12T16:09:59.745Z,52.60
2022-09-12T16:12:26.202Z,52.60
2022-09-12T16:14:52.702Z,52.60
2022-09-12T16:17:19.159Z,52.60
2022-09-12T16:19:45.650Z,52.60
2022-09-12T16:22:12.117Z,52.60
2022-09-12T16:24:38.591Z,52.60
2022-09-12T16:27:05.088Z,52.70
2022-09-12T16:29:31.701Z,52.60
2022-09-12T16:31:58.204Z,52.60
2022-09-12T16:34:24.674Z,52.60
2022-09-12T16:36:51.149Z,52.60
2022-09-12T16:39:17.620Z,52.60
2022-09-12T16:41:44.117Z,52.60
2022-09-12T16:44:10.603Z,52.60
2022-09-12T16:46:37.115Z,52.60
2022-09-12T16:49:03.664Z,52.60
2022-09-12T16:51:30.150Z,52.50
2022-09-12T16:53:56.632Z,52.50
2022-09-12T16:56:23.135Z,52.50
2022-09-12T16:58:49.712Z,52.50
2022-09-12T17:01:16.385Z,52.50
2022-09-12T17:03:42.883Z,52.50
2022-09-12T17:06:09.351Z,52.50
2022-09-12T17:08:35.869Z,52.50
2022-09-12T17:11:02.348Z,52.50
2022-09-12T17:13:41.338Z,52.40
2022-09-12T17:16:15.319Z,52.40
2022-09-12T17:18:41.819Z,52.40
2022-09-12T17:21:08.306Z,52.40
2022-09-12T17:23:34.781Z,52.40
2022-09-12T17:26:01.256Z,52.40
2022-09-12T17:28:27.715Z,52.40
2022-09-12T17:30:54.216Z,52.40
2022-09-12T17:33:20.779Z,52.40
2022-09-12T17:35:47.303Z,52.40
2022-09-12T17:38:17.655Z,52.40
2022-09-12T17:40:59.112Z,52.40
2022-09-12T17:43:26.471Z,52.40
2022-09-12T17:45:52.976Z,52.40
2022-09-12T17:48:19.459Z,52.50
2022-09-12T17:50:45.961Z,52.50
2022-09-12T17:53:12.425Z,52.50
2022-09-12T17:55:38.934Z,52.40
2022-09-12T17:58:05.403Z,52.50
2022-09-12T18:00:31.960Z,52.50
2022-09-12T18:02:58.476Z,52.50
2022-09-12T18:05:24.970Z,52.50
2022-09-12T18:07:51.438Z,52.60
2022-09-12T18:10:17.913Z,52.60
2022-09-12T18:12:44.397Z,52.60
2022-09-12T18:15:10.908Z,52.70
2022-09-12T18:17:37.380Z,52.70
2022-09-12T18:20:03.854Z,52.70
2022-09-12T18:22:30.321Z,52.70
2022-09-12T18:24:56.790Z,52.70
2022-09-12T18:27:23.270Z,52.60
2022-09-12T18:30:10.324Z,52.90
2022-09-12T18:32:36.204Z,52.80
2022-09-12T18:35:02.717Z,53.00
2022-09-12T18:37:29.182Z,53.00
2022-09-12T18:39:55.708Z,52.90
2022-09-12T18:42:22.185Z,53.10
2022-09-12T18:44:48.642Z,53.20
2022-09-12T18:47:15.102Z,53.20
2022-09-12T18:49:41.588Z,53.20
2022-09-12T18:52:08.076Z,53.30
2022-09-12T18:54:34.558Z,53.30
2022-09-12T18:57:01.042Z,53.30
2022-09-12T18:59:27.542Z,53.50
2022-09-12T19:01:54.109Z,53.50
2022-09-12T19:04:20.654Z,53.50
2022-09-12T19:06:47.134Z,53.50
2022-09-12T19:09:13.605Z,53.40
2022-09-12T19:11:40.098Z,53.40
2022-09-12T19:14:06.576Z,53.50
2022-09-12T19:16:33.064Z,53.50
2022-09-12T19:18:59.527Z,53.40
2022-09-12T19:21:26.008Z,53.40
2022-09-12T19:23:52.482Z,53.50
2022-09-12T19:26:18.978Z,53.60
2022-09-12T19:28:45.460Z,53.50
2022-09-12T19:31:12.020Z,53.60
2022-09-12T19:33:38.524Z,53.60
2022-09-12T19:36:05.001Z,53.60
2022-09-12T19:38:31.475Z,53.50
2022-09-12T19:40:57.984Z,53.60
2022-09-12T19:43:24.466Z,53.60
2022-09-12T19:45:50.952Z,53.60
2022-09-12T19:48:17.429Z,53.50
2022-09-12T19:50:43.930Z,53.50
2022-09-12T19:53:10.419Z,53.60
2022-09-12T19:55:36.930Z,53.50
2022-09-12T19:58:03.395Z,53.40
2022-09-12T20:00:29.908Z,53.50
2022-09-12T20:02:56.398Z,53.40
2022-09-12T20:05:22.878Z,53.50
2022-09-12T20:07:49.356Z,53.50
2022-09-12T20:10:15.854Z,53.40
2022-09-12T20:12:42.342Z,53.50
2022-09-12T20:15:08.832Z,53.40
2022-09-12T20:17:35.300Z,53.60
2022-09-12T20:20:01.774Z,53.40
2022-09-12T20:22:28.285Z,53.40
2022-09-12T20:24:54.745Z,53.50
2022-09-12T20:27:21.232Z,53.40
2022-09-12T20:29:47.706Z,53.50
2022-09-12T20:32:14.199Z,53.50
2022-09-12T20:34:40.677Z,53.40
2022-09-12T20:37:07.145Z,53.40
2022-09-12T20:39:33.608Z,53.40
2022-09-12T20:42:00.095Z,53.40
2022-09-12T20:44:26.566Z,53.30
2022-09-12T20:46:53.089Z,53.40
2022-09-12T20:49:19.579Z,53.30
2022-09-12T20:51:46.070Z,53.30
2022-09-12T20:54:12.548Z,53.30
2022-09-12T20:56:39.020Z,53.30
2022-09-12T20:59:05.502Z,53.40
2022-09-12T21:01:32.024Z,53.40
2022-09-12T21:03:58.500Z,53.40
2022-09-12T21:06:24.982Z,53.30
2022-09-12T21:08:51.460Z,53.40
2022-09-12T21:11:17.925Z,53.30
2022-09-12T21:13:44.408Z,53.50
2022-09-12T21:16:10.911Z,53.40
2022-09-12T21:18:37.411Z,53.40
2022-09-12T21:21:03.887Z,53.40
2022-09-12T21:23:30.383Z,53.40
2022-09-12T21:25:56.866Z,53.40
2022-09-12T21:28:23.363Z,53.30
2022-09-12T21:30:49.983Z,53.30
2022-09-12T21:33:16.526Z,53.30
2022-09-12T21:35:43.015Z,53.30
2022-09-12T21:38:09.483Z,53.30
2022-09-12T21:40:35.991Z,53.30
2022-09-12T21:43:02.459Z,53.30
2022-09-12T21:45:28.962Z,53.30
2022-09-12T21:47:55.446Z,53.30
2022-09-12T21:50:21.940Z,53.20
2022-09-12T21:52:48.425Z,53.20
2022-09-12T21:55:14.916Z,53.30
2022-09-12T21:57:41.376Z,53.30
2022-09-12T22:00:07.845Z,53.30
2022-09-12T22:02:34.344Z,53.80
2022-09-12T22:05:00.823Z,53.20
2022-09-12T22:07:27.314Z,53.20
2022-09-12T22:09:53.769Z,53.30
2022-09-12T22:12:20.250Z,53.20
2022-09-12T22:14:46.750Z,53.20
2022-09-12T22:17:13.240Z,53.20
2022-09-12T22:19:39.719Z,53.20
2022-09-12T22:22:06.201Z,53.30
2022-09-12T22:24:32.678Z,53.30
2022-09-12T22:26:59.154Z,53.30
2022-09-12T22:29:25.615Z,53.30
2022-09-12T22:31:52.111Z,53.20
2022-09-12T22:34:18.597Z,53.30
2022-09-12T22:36:45.077Z,53.30
2022-09-12T22:39:11.550Z,53.30
2022-09-12T22:41:38.028Z,53.40
2022-09-12T22:44:04.488Z,53.40
2022-09-12T22:46:31.042Z,53.40
2022-09-12T22:48:57.534Z,53.30
2022-09-12T22:51:24.012Z,53.30
2022-09-12T22:53:50.492Z,53.30
2022-09-12T22:56:16.979Z,53.30
2022-09-12T22:58:43.459Z,53.20
2022-09-12T23:01:09.968Z,53.30
2022-09-12T23:03:36.650Z,53.30
2022-09-12T23:06:03.211Z,53.20
2022-09-12T23:08:29.789Z,53.20
2022-09-12T23:10:56.327Z,53.20
2022-09-12T23:13:22.796Z,53.20
2022-09-12T23:15:49.299Z,53.10
2022-09-12T23:18:15.798Z,53.10
2022-09-12T23:20:42.279Z,53.10
2022-09-12T23:23:08.764Z,53.10
2022-09-12T23:25:35.256Z,53.10
2022-09-12T23:28:01.739Z,53.20
2022-09-12T23:30:28.218Z,53.10
2022-09-12T23:32:54.705Z,53.10
2022-09-12T23:35:21.181Z,53.00
2022-09-12T23:37:47.680Z,53.10
2022-09-12T23:40:14.278Z,53.10
2022-09-12T23:42:40.822Z,53.10
2022-09-12T23:45:07.289Z,53.10
2022-09-12T23:47:33.839Z,53.00
2022-09-12T23:50:00.306Z,53.00
2022-09-12T23:52:26.789Z,53.10
2022-09-12T23:54:53.264Z,53.00
2022-09-12T23:57:19.756Z,53.10
2022-09-12T23:59:46.218Z,53.00
